Time;durP1;ratioP1;P1;durP2;ratioP2;P2;SDS_P1;SDS_P2;PMS_P1;PMS_P2;Temp;Humidity;BMP_temperature;BMP_pressure;BME280_temperature;BME280_humidity;BME280_pressure;Samples;Min_cycle;Max_cycle;Signal;HPM_P1;HPM_P2
2021/03/11 00:01:15;;;;;;;39.85;21.95;;;6.40;57.50;;;;;;5032877;28;20054;-74
2021/03/11 00:03:41;;;;;;;45.92;25.15;;;6.40;57.30;;;;;;5032977;28;20029;-74
2021/03/11 00:06:07;;;;;;;43.63;24.02;;;6.40;57.40;;;;;;5031679;28;20391;-74
2021/03/11 00:08:32;;;;;;;46.38;25.52;;;6.30;57.50;;;;;;5015205;28;20047;-74
2021/03/11 00:10:58;;;;;;;50.10;25.88;;;6.30;57.50;;;;;;5032844;28;20467;-74
2021/03/11 00:13:24;;;;;;;45.63;25.33;;;6.20;57.60;;;;;;5032905;28;20018;-75
2021/03/11 00:15:50;;;;;;;50.28;26.63;;;6.20;57.60;;;;;;5032725;28;20024;-75
2021/03/11 00:18:16;;;;;;;45.65;24.00;;;6.20;57.70;;;;;;5032780;28;20056;-74
2021/03/11 00:20:42;;;;;;;43.78;24.27;;;6.20;57.60;;;;;;5032912;28;20037;-74
2021/03/11 00:23:08;;;;;;;44.85;24.85;;;6.20;57.70;;;;;;5032509;28;20566;-74
2021/03/11 00:25:35;;;;;;;53.95;27.08;;;6.20;57.80;;;;;;5032686;28;20032;-74
2021/03/11 00:28:02;;;;;;;54.58;28.23;;;6.10;58.00;;;;;;5032745;28;20036;-75
2021/03/11 00:30:28;;;;;;;48.30;26.05;;;6.10;58.10;;;;;;5032555;28;20443;-75
2021/03/11 00:32:54;;;;;;;48.45;25.30;;;6.10;58.20;;;;;;5031424;28;20018;-75
2021/03/11 00:35:20;;;;;;;48.08;25.13;;;6.10;58.30;;;;;;5015057;28;20026;-74
2021/03/11 00:37:48;;;;;;;56.60;28.75;;;6.10;58.30;;;;;;5032667;28;20410;-74
2021/03/11 00:40:15;;;;;;;58.05;29.77;;;6.10;58.50;;;;;;5015066;28;20106;-74
2021/03/11 00:42:41;;;;;;;58.88;29.33;;;6.10;58.70;;;;;;5031377;28;20133;-75
2021/03/11 00:45:09;;;;;;;58.00;29.00;;;6.10;58.90;;;;;;5032494;28;20391;-74
2021/03/11 00:47:36;;;;;;;54.80;28.77;;;6.20;59.20;;;;;;5032597;28;20033;-75
2021/03/11 00:50:08;;;;;;;56.53;29.45;;;6.20;59.20;;;;;;5032457;28;20049;-75
2021/03/11 00:52:34;;;;;;;52.33;28.52;;;6.30;59.20;;;;;;5032551;28;20028;-74
2021/03/11 00:55:00;;;;;;;55.58;27.15;;;6.30;59.20;;;;;;5032667;28;20025;-75
2021/03/11 00:57:26;;;;;;;57.85;29.13;;;6.30;59.30;;;;;;5016034;28;20051;-75
2021/03/11 00:59:52;;;;;;;57.75;30.38;;;6.40;59.30;;;;;;5034743;28;20037;-75
2021/03/11 01:02:17;;;;;;;57.17;29.80;;;6.40;59.30;;;;;;5036382;28;20029;-74
2021/03/11 01:04:43;;;;;;;53.50;27.27;;;6.50;59.40;;;;;;5035113;28;20379;-75
2021/03/11 01:07:10;;;;;;;55.53;27.80;;;6.50;59.20;;;;;;5018318;28;20033;-75
2021/03/11 01:09:36;;;;;;;51.70;26.95;;;6.60;59.10;;;;;;5036021;28;20021;-74
2021/03/11 01:12:02;;;;;;;57.42;28.20;;;6.60;59.10;;;;;;5035939;28;20470;-74
2021/03/11 01:14:28;;;;;;;55.63;27.98;;;6.60;59.00;;;;;;5036041;28;20060;-74
2021/03/11 01:16:54;;;;;;;48.55;26.48;;;6.70;59.00;;;;;;5036209;28;20045;-75
2021/03/11 01:19:20;;;;;;;52.20;26.58;;;6.70;58.90;;;;;;5018298;28;20104;-74
2021/03/11 01:21:46;;;;;;;52.05;26.80;;;6.70;58.80;;;;;;5018003;28;20025;-75
2021/03/11 01:24:12;;;;;;;49.08;25.88;;;6.70;58.70;;;;;;5035736;28;20052;-75
2021/03/11 01:26:38;;;;;;;52.60;27.33;;;6.80;58.70;;;;;;5035687;28;20056;-75
2021/03/11 01:29:03;;;;;;;54.63;28.90;;;6.80;58.70;;;;;;5035757;28;20382;-74
2021/03/11 01:31:29;;;;;;;52.25;27.20;;;6.80;59.30;;;;;;5017873;28;20104;-75
2021/03/11 01:33:55;;;;;;;48.58;26.83;;;6.80;58.60;;;;;;5035665;28;20026;-75
2021/03/11 01:36:21;;;;;;;52.38;27.50;;;6.80;58.50;;;;;;5035575;28;20028;-75
2021/03/11 01:38:47;;;;;;;49.78;25.33;;;6.90;58.50;;;;;;5035413;28;20100;-74
2021/03/11 01:41:13;;;;;;;45.70;25.63;;;6.80;58.40;;;;;;5017821;28;20025;-75
2021/03/11 01:43:39;;;;;;;47.97;27.80;;;6.80;58.30;;;;;;5035295;28;20051;-75
2021/03/11 01:46:05;;;;;;;44.40;23.90;;;6.80;58.30;;;;;;5035301;28;20494;-75
2021/03/11 01:48:31;;;;;;;47.42;27.02;;;6.90;58.40;;;;;;5017628;28;20029;-75
2021/03/11 01:50:57;;;;;;;48.42;25.23;;;6.90;58.50;;;;;;5035261;28;20029;-75
2021/03/11 01:53:23;;;;;;;44.95;23.33;;;6.90;58.50;;;;;;5035165;28;20018;-74
2021/03/11 01:55:49;;;;;;;42.97;23.63;;;6.90;58.50;;;;;;5035398;28;20025;-74
2021/03/11 01:58:16;;;;;;;44.58;23.80;;;6.90;58.50;;;;;;5035021;28;20022;-74
2021/03/11 02:00:42;;;;;;;48.05;24.92;;;6.90;58.50;;;;;;5017141;28;20049;-74
2021/03/11 02:03:08;;;;;;;51.65;26.77;;;6.90;58.50;;;;;;5017264;28;20109;-75
2021/03/11 02:05:33;;;;;;;50.92;25.17;;;6.90;58.50;;;;;;5017560;28;20025;-75
2021/03/11 02:07:59;;;;;;;48.90;25.30;;;6.90;58.50;;;;;;5016935;28;20055;-74
2021/03/11 02:10:26;;;;;;;47.42;25.63;;;7.00;58.60;;;;;;5034742;28;20479;-75
2021/03/11 02:13:11;;;;;;;48.15;26.02;;;7.00;58.60;;;;;;5034870;28;20495;-75
2021/03/11 02:15:45;;;;;;;49.55;25.48;;;7.00;58.60;;;;;;5033464;28;20037;-74
2021/03/11 02:18:34;;;;;;;42.65;24.17;;;7.00;58.60;;;;;;5033709;28;20041;-75
2021/03/11 02:21:10;;;;;;;42.03;23.20;;;7.10;58.60;;;;;;5033364;28;20040;-75
2021/03/11 02:23:45;;;;;;;39.15;21.13;;;7.10;58.40;;;;;;5033326;28;20029;-75
2021/03/11 02:26:32;;;;;;;50.13;24.98;;;7.10;58.30;;;;;;5034674;28;20115;-75
2021/03/11 02:29:08;;;;;;;46.20;24.20;;;7.10;58.30;;;;;;5033170;28;20030;-75
2021/03/11 02:31:39;;;;;;;48.72;25.58;;;7.10;58.20;;;;;;5034535;28;20017;-74
2021/03/11 02:34:18;;;;;;;48.00;25.25;;;7.10;58.20;;;;;;5034399;28;20018;-74
2021/03/11 02:36:44;;;;;;;41.13;22.58;;;7.10;58.10;;;;;;5034345;28;20155;-75
2021/03/11 02:39:13;;;;;;;36.13;20.05;;;7.10;58.00;;;;;;5034334;28;20474;-75
2021/03/11 02:41:43;;;;;;;38.75;21.50;;;7.20;58.00;;;;;;5034280;28;20390;-75
2021/03/11 02:44:11;;;;;;;36.05;18.85;;;7.20;58.00;;;;;;5034464;28;20051;-74
2021/03/11 02:46:39;;;;;;;32.20;17.88;;;7.20;57.90;;;;;;5016334;28;20112;-75
2021/03/11 02:49:06;;;;;;;33.03;17.92;;;7.20;57.80;;;;;;5034111;28;20018;-75
2021/03/11 02:51:32;;;;;;;35.28;20.15;;;7.20;57.80;;;;;;5016389;28;20068;-75
2021/03/11 02:53:59;;;;;;;36.85;20.67;;;7.20;57.80;;;;;;5033947;28;20104;-75
2021/03/11 02:56:25;;;;;;;37.28;20.77;;;7.20;57.90;;;;;;5034025;28;20042;-74
2021/03/11 02:58:53;;;;;;;36.95;19.13;;;7.30;57.90;;;;;;5033966;28;20029;-74
2021/03/11 03:01:21;;;;;;;37.90;20.52;;;7.30;57.90;;;;;;5029200;28;20080;-75
2021/03/11 03:03:50;;;;;;;40.20;20.88;;;7.30;57.90;;;;;;5014141;28;20058;-75
2021/03/11 03:06:17;;;;;;;44.33;22.27;;;7.30;57.80;;;;;;5029260;28;20447;-75
2021/03/11 03:08:44;;;;;;;38.45;21.20;;;7.30;57.80;;;;;;5013936;28;20498;-75
2021/03/11 03:11:14;;;;;;;36.80;21.35;;;7.30;57.80;;;;;;5014193;28;20408;-75
2021/03/11 03:13:44;;;;;;;34.28;17.95;;;7.30;57.70;;;;;;5013969;28;20018;-74
2021/03/11 03:16:12;;;;;;;35.03;20.13;;;7.30;57.70;;;;;;5014180;28;20073;-75
2021/03/11 03:18:39;;;;;;;33.10;19.48;;;7.30;57.60;;;;;;5012604;28;20095;-76
2021/03/11 03:21:10;;;;;;;34.33;18.70;;;7.30;57.50;;;;;;5028392;28;20030;-75
2021/03/11 03:23:38;;;;;;;33.80;18.02;;;7.30;57.40;;;;;;5029233;28;20391;-75
2021/03/11 03:26:04;;;;;;;33.45;18.55;;;7.30;57.30;;;;;;5013781;28;20052;-75
2021/03/11 03:28:30;;;;;;;30.90;17.73;;;7.30;57.30;;;;;;5013755;28;20467;-75
2021/03/11 03:30:56;;;;;;;30.92;17.50;;;7.20;57.20;;;;;;5013636;28;20026;-74
2021/03/11 03:33:22;;;;;;;33.63;18.27;;;7.20;57.30;;;;;;5012419;28;20072;-75
2021/03/11 03:35:48;;;;;;;31.60;17.80;;;7.20;57.80;;;;;;5012495;28;20025;-75
2021/03/11 03:38:14;;;;;;;34.58;19.00;;;7.20;57.20;;;;;;5013811;28;20554;-75
2021/03/11 03:40:41;;;;;;;35.67;17.65;;;7.20;57.30;;;;;;5013495;28;20026;-75
2021/03/11 03:43:19;;;;;;;34.45;19.60;;;7.20;57.30;;;;;;5013589;28;20105;-75
2021/03/11 03:45:56;;;;;;;30.70;18.08;;;7.10;57.30;;;;;;5013509;28;20097;-75
2021/03/11 03:48:39;;;;;;;33.58;18.35;;;7.20;57.40;;;;;;5012233;28;20387;-75
2021/03/11 03:51:06;;;;;;;31.38;16.88;;;7.20;57.40;;;;;;5013564;28;20458;-75
2021/03/11 03:53:46;;;;;;;29.67;16.13;;;7.20;57.40;;;;;;5028504;28;20018;-75
2021/03/11 03:56:24;;;;;;;30.80;18.10;;;7.20;57.40;;;;;;5013444;28;20025;-75
2021/03/11 03:58:58;;;;;;;35.75;19.05;;;7.20;57.40;;;;;;5013356;28;20105;-74
2021/03/11 04:01:29;;;;;;;30.05;17.95;;;7.20;57.50;;;;;;5030502;28;20495;-74
2021/03/11 04:04:02;;;;;;;29.75;15.30;;;7.20;57.50;;;;;;5033081;28;20037;-75
2021/03/11 04:06:30;;;;;;;28.52;16.60;;;7.30;57.50;;;;;;5032945;28;20075;-75
2021/03/11 04:08:56;;;;;;;27.52;16.95;;;7.30;57.50;;;;;;5031710;28;20171;-74
2021/03/11 04:11:22;;;;;;;31.38;16.40;;;7.30;57.50;;;;;;5015149;28;20018;-75
2021/03/11 04:13:51;;;;;;;26.67;15.55;;;7.30;57.60;;;;;;5032859;28;20364;-75
2021/03/11 04:16:18;;;;;;;27.95;17.00;;;7.30;57.50;;;;;;5015299;28;20017;-74
2021/03/11 04:18:45;;;;;;;27.63;16.98;;;7.30;57.50;;;;;;5032864;28;20029;-75
2021/03/11 04:21:12;;;;;;;28.48;16.92;;;7.30;57.50;;;;;;5015121;28;20382;-75
2021/03/11 04:23:39;;;;;;;32.10;16.00;;;7.40;57.60;;;;;;5032906;28;20014;-75
2021/03/11 04:26:06;;;;;;;27.92;16.52;;;7.40;57.50;;;;;;5032780;28;20021;-75
2021/03/11 04:28:33;;;;;;;26.58;16.10;;;7.40;57.40;;;;;;5033205;28;20032;-74
2021/03/11 04:30:59;;;;;;;31.95;16.45;;;7.40;57.40;;;;;;5033307;28;20433;-75
2021/03/11 04:33:25;;;;;;;30.55;17.10;;;7.40;57.40;;;;;;5036571;28;20022;-75
2021/03/11 04:35:53;;;;;;;31.95;18.58;;;7.40;57.40;;;;;;5036713;28;20029;-75
2021/03/11 04:38:19;;;;;;;30.67;18.15;;;7.40;57.50;;;;;;5036515;28;20487;-75
2021/03/11 04:40:45;;;;;;;30.92;17.38;;;7.40;57.40;;;;;;5036575;28;20030;-75
2021/03/11 04:43:11;;;;;;;30.20;18.73;;;7.40;57.40;;;;;;5036580;28;20064;-75
2021/03/11 04:45:39;;;;;;;30.35;18.58;;;7.40;57.50;;;;;;5018605;28;20487;-75
2021/03/11 04:48:07;;;;;;;31.10;19.30;;;7.50;57.50;;;;;;5035160;28;20402;-74
2021/03/11 04:50:33;;;;;;;28.90;18.00;;;7.40;57.50;;;;;;5035067;28;20026;-75
2021/03/11 04:52:59;;;;;;;31.75;17.38;;;7.40;57.40;;;;;;5034860;28;20034;-75
2021/03/11 04:55:25;;;;;;;30.15;18.73;;;7.50;57.50;;;;;;5036597;28;20374;-75
2021/03/11 04:57:53;;;;;;;29.67;17.67;;;7.50;57.40;;;;;;5036085;28;20021;-75
2021/03/11 05:00:20;;;;;;;29.45;16.60;;;7.50;57.30;;;;;;5035931;28;20081;-75
2021/03/11 05:02:48;;;;;;;34.75;19.95;;;7.50;57.20;;;;;;5018546;28;20395;-74
2021/03/11 05:05:42;;;;;;;33.70;19.45;;;7.50;57.20;;;;;;5036014;28;20064;-75
2021/03/11 05:08:09;;;;;;;30.83;17.77;;;7.40;57.20;;;;;;5036050;28;20032;-74
2021/03/11 05:10:36;;;;;;;30.95;17.83;;;7.40;57.10;;;;;;5018319;28;20501;-75
2021/03/11 05:13:03;;;;;;;32.20;17.58;;;7.40;57.10;;;;;;5035915;28;20147;-75
2021/03/11 05:15:29;;;;;;;30.40;17.38;;;7.40;57.20;;;;;;5035827;28;20167;-75
2021/03/11 05:17:55;;;;;;;29.80;17.30;;;7.40;57.20;;;;;;5035786;28;20032;-75
2021/03/11 05:20:22;;;;;;;33.80;17.85;;;7.40;57.30;;;;;;5035793;28;20152;-75
2021/03/11 05:22:49;;;;;;;31.58;18.15;;;7.30;57.40;;;;;;5035842;28;20041;-74
2021/03/11 05:25:15;;;;;;;27.13;16.17;;;7.30;57.40;;;;;;5035580;28;20025;-75
2021/03/11 05:27:41;;;;;;;30.90;17.48;;;7.30;57.50;;;;;;5035951;28;20520;-74
2021/03/11 05:30:11;;;;;;;28.50;17.40;;;7.40;57.60;;;;;;5034234;28;20128;-74
2021/03/11 05:32:37;;;;;;;29.38;17.02;;;7.40;57.60;;;;;;5017874;28;20027;-75
2021/03/11 05:35:04;;;;;;;28.00;16.92;;;7.40;57.70;;;;;;5017996;28;20049;-75
2021/03/11 05:37:29;;;;;;;35.85;19.98;;;7.40;57.60;;;;;;5034202;28;20025;-74
2021/03/11 05:39:58;;;;;;;34.42;17.95;;;7.50;57.70;;;;;;5036519;28;20039;-74
2021/03/11 05:42:24;;;;;;;31.15;17.60;;;7.50;57.70;;;;;;5034853;28;20025;-74
2021/03/11 05:44:51;;;;;;;33.45;20.25;;;7.50;57.70;;;;;;5034222;28;20426;-74
2021/03/11 05:47:19;;;;;;;31.65;18.90;;;7.60;57.70;;;;;;5017756;28;20037;-74
2021/03/11 05:49:46;;;;;;;39.50;21.10;;;7.60;57.70;;;;;;5017778;28;20030;-74
2021/03/11 05:52:13;;;;;;;38.08;21.63;;;7.70;57.70;;;;;;5035243;28;20044;-74
2021/03/11 05:54:39;;;;;;;41.25;22.73;;;7.70;57.70;;;;;;5035167;28;20022;-74
2021/03/11 05:57:07;;;;;;;59.97;33.45;;;7.70;57.70;;;;;;5033733;28;20021;-74
2021/03/11 05:59:34;;;;;;;57.60;30.67;;;7.80;57.70;;;;;;5034701;28;20069;-74
2021/03/11 06:02:05;;;;;;;44.33;23.48;;;7.80;57.70;;;;;;5034064;28;20045;-74
2021/03/11 06:04:33;;;;;;;34.72;21.17;;;7.90;57.80;;;;;;5017179;28;20029;-74
2021/03/11 06:07:00;;;;;;;35.40;21.25;;;7.90;57.70;;;;;;5034978;28;20442;-75
2021/03/11 06:09:27;;;;;;;34.60;20.45;;;8.00;57.70;;;;;;5034906;28;20033;-75
2021/03/11 06:11:53;;;;;;;29.63;17.33;;;8.00;57.70;;;;;;5034912;28;20021;-74
2021/03/11 06:14:21;;;;;;;32.17;18.98;;;8.10;57.60;;;;;;5034721;28;20033;-75
2021/03/11 06:17:02;;;;;;;33.63;19.83;;;8.10;57.50;;;;;;5034622;28;20026;-75
2021/03/11 06:19:28;;;;;;;33.17;19.20;;;8.20;57.30;;;;;;5034673;28;20030;-74
2021/03/11 06:21:54;;;;;;;34.22;19.35;;;8.20;57.20;;;;;;5034568;28;20383;-75
2021/03/11 06:24:23;;;;;;;29.95;18.48;;;8.20;57.10;;;;;;5016901;28;20025;-75
2021/03/11 06:26:49;;;;;;;31.17;19.45;;;8.30;57.10;;;;;;5033223;28;20112;-75
2021/03/11 06:29:17;;;;;;;35.33;19.25;;;8.30;57.00;;;;;;5035070;28;20036;-74
2021/03/11 06:31:43;;;;;;;30.60;18.02;;;8.30;56.80;;;;;;5033272;28;20160;-74
2021/03/11 06:34:21;;;;;;;34.20;19.27;;;8.40;56.80;;;;;;5034321;28;20021;-74
2021/03/11 06:36:48;;;;;;;37.47;21.75;;;8.40;56.80;;;;;;5034356;28;20021;-74
2021/03/11 06:39:28;;;;;;;34.92;21.20;;;8.40;56.70;;;;;;5034455;28;20064;-74
2021/03/11 06:41:55;;;;;;;34.40;20.85;;;8.40;56.60;;;;;;5016641;28;20053;-74
2021/03/11 06:44:37;;;;;;;41.70;21.65;;;8.50;56.70;;;;;;5034160;28;20097;-74
2021/03/11 06:47:09;;;;;;;41.75;21.98;;;8.50;56.70;;;;;;5033044;28;20029;-74
2021/03/11 06:49:54;;;;;;;43.35;23.10;;;8.60;56.70;;;;;;5033960;28;20075;-74
2021/03/11 06:52:19;;;;;;;38.30;22.85;;;8.70;56.60;;;;;;5033955;28;20017;-74
2021/03/11 06:54:51;;;;;;;47.15;27.67;;;8.70;56.50;;;;;;5032836;28;20036;-74
2021/03/11 06:57:35;;;;;;;64.60;31.58;;;8.80;56.50;;;;;;5033728;28;20049;-74
2021/03/11 07:00:17;;;;;;;61.35;32.95;;;8.90;56.40;;;;;;5033633;28;20132;-75
2021/03/11 07:02:57;;;;;;;54.58;29.17;;;8.90;56.30;;;;;;5033757;28;20029;-75
2021/03/11 07:05:29;;;;;;;54.30;31.15;;;9.00;56.10;;;;;;5033781;28;20026;-75
2021/03/11 07:08:11;;;;;;;61.85;35.35;;;9.00;56.00;;;;;;5033682;28;20060;-75
2021/03/11 07:10:37;;;;;;;62.85;31.73;;;9.10;55.70;;;;;;5033773;28;20061;-75
2021/03/11 07:13:05;;;;;;;66.38;35.58;;;9.10;55.50;;;;;;5033575;28;20025;-75
2021/03/11 07:15:33;;;;;;;55.45;33.50;;;9.10;55.40;;;;;;5016088;28;20109;-76
2021/03/11 07:18:00;;;;;;;60.50;31.45;;;9.10;55.30;;;;;;5033650;28;20100;-75
2021/03/11 07:20:33;;;;;;;58.28;29.15;;;9.10;55.20;;;;;;5033487;28;20109;-75
2021/03/11 07:23:10;;;;;;;52.67;28.40;;;9.20;55.20;;;;;;5015980;28;20060;-75
2021/03/11 07:25:39;;;;;;;49.97;25.92;;;9.20;55.10;;;;;;5033568;28;20391;-75
2021/03/11 07:28:07;;;;;;;40.40;23.08;;;9.20;55.00;;;;;;5033331;28;20021;-76
2021/03/11 07:30:57;;;;;;;45.85;25.95;;;9.20;54.50;;;;;;5032255;28;20617;-76
2021/03/11 07:33:25;;;;;;;41.40;24.60;;;9.20;54.50;;;;;;5015513;28;20026;-76
2021/03/11 07:35:55;;;;;;;42.83;24.55;;;9.30;54.60;;;;;;5033342;28;20024;-76
2021/03/11 07:38:22;;;;;;;44.85;22.83;;;9.40;54.50;;;;;;5033296;28;20513;-74
2021/03/11 07:40:53;;;;;;;43.75;25.75;;;9.40;54.50;;;;;;5033325;28;20025;-74
2021/03/11 07:43:20;;;;;;;41.70;24.58;;;9.50;54.50;;;;;;5015641;28;20091;-75
2021/03/11 07:45:47;;;;;;;48.20;27.90;;;9.50;54.50;;;;;;5033134;28;20022;-74
2021/03/11 07:48:13;;;;;;;42.05;24.23;;;9.60;54.60;;;;;;5033019;28;20052;-75
2021/03/11 07:50:46;;;;;;;51.05;25.20;;;9.70;54.50;;;;;;5033085;28;20025;-75
2021/03/11 07:53:12;;;;;;;44.53;24.73;;;9.80;54.40;;;;;;5032963;28;20021;-75
2021/03/11 07:55:38;;;;;;;39.17;21.00;;;9.90;54.30;;;;;;5033021;28;20028;-75
2021/03/11 07:58:07;;;;;;;37.25;20.75;;;10.00;54.20;;;;;;5033209;28;20075;-75
2021/03/11 08:00:33;;;;;;;38.33;20.45;;;10.20;53.80;;;;;;5015152;28;20061;-74
2021/03/11 08:03:07;;;;;;;34.17;17.35;;;10.30;53.20;;;;;;5035035;28;20456;-75
2021/03/11 08:05:34;;;;;;;32.58;17.70;;;10.40;52.40;;;;;;5018474;28;20104;-75
2021/03/11 08:08:28;;;;;;;33.92;18.52;;;10.40;51.60;;;;;;5038013;28;20036;-74
2021/03/11 08:10:59;;;;;;;28.70;16.77;;;10.50;51.00;;;;;;5035877;28;20100;-75
2021/03/11 08:13:31;;;;;;;38.85;20.20;;;10.60;50.90;;;;;;5037232;28;20029;-75
2021/03/11 08:16:21;;;;;;;32.83;18.55;;;10.70;50.30;;;;;;5035824;28;20022;-74
2021/03/11 08:18:47;;;;;;;26.08;15.43;;;10.70;49.80;;;;;;5019076;28;20022;-74
2021/03/11 08:21:25;;;;;;;23.77;14.27;;;10.80;49.10;;;;;;5036836;28;20017;-75
2021/03/11 08:23:52;;;;;;;26.13;15.65;;;10.80;49.10;;;;;;5035829;28;20052;-75
2021/03/11 08:26:41;;;;;;;27.88;15.20;;;10.90;49.20;;;;;;5019037;28;20029;-75
2021/03/11 08:29:18;;;;;;;26.10;14.10;;;11.00;48.20;;;;;;5036630;28;20029;-73
2021/03/11 08:31:48;;;;;;;26.65;14.52;;;11.10;48.00;;;;;;5036788;28;20076;-74
2021/03/11 08:34:43;;;;;;;29.83;15.23;;;11.20;48.20;;;;;;5036693;28;20071;-75
2021/03/11 08:37:31;;;;;;;21.88;14.00;;;11.30;48.20;;;;;;5023653;28;20076;-73
2021/03/11 08:39:56;;;;;;;26.65;16.23;;;11.40;47.90;;;;;;5047457;28;20081;-74
2021/03/11 08:42:46;;;;;;;24.92;14.77;;;11.50;47.80;;;;;;5056052;28;20029;-74
2021/03/11 08:45:37;;;;;;;29.70;16.15;;;11.60;47.40;;;;;;5057199;28;20017;-74
2021/03/11 08:48:13;;;;;;;39.30;18.83;;;11.60;47.60;;;;;;5058276;28;20002;-74
2021/03/11 08:50:40;;;;;;;33.70;16.52;;;11.80;47.90;;;;;;5037902;28;20045;-74
2021/03/11 08:53:06;;;;;;;27.23;15.82;;;11.90;47.20;;;;;;5048804;28;20018;-74
2021/03/11 08:55:41;;;;;;;22.85;13.45;;;11.90;47.60;;;;;;5045332;28;20026;-74
2021/03/11 08:58:27;;;;;;;26.48;16.10;;;12.10;47.40;;;;;;5056902;28;20018;-74
2021/03/11 09:01:00;;;;;;;23.35;13.27;;;12.20;47.60;;;;;;5058062;28;20055;-74
2021/03/11 09:03:46;;;;;;;19.67;12.00;;;12.40;46.90;;;;;;5042830;28;20017;-74
2021/03/11 09:06:14;;;;;;;25.50;14.98;;;12.60;46.50;;;;;;5057448;28;20030;-74
2021/03/11 09:08:53;;;;;;;24.00;14.40;;;12.70;46.30;;;;;;5038867;28;20010;-75
2021/03/11 09:11:21;;;;;;;20.38;12.82;;;12.90;46.00;;;;;;5058918;28;20025;-75
2021/03/11 09:13:52;;;;;;;20.88;11.02;;;13.00;45.80;;;;;;5054949;28;20017;-75
2021/03/11 09:16:26;;;;;;;19.73;11.73;;;13.00;45.10;;;;;;5050480;28;20072;-75
2021/03/11 09:18:56;;;;;;;17.73;11.48;;;13.10;44.30;;;;;;5051906;28;20037;-74
2021/03/11 09:21:30;;;;;;;16.63;10.77;;;13.10;43.60;;;;;;5055801;28;20021;-74
2021/03/11 09:23:56;;;;;;;16.52;10.55;;;13.10;43.90;;;;;;5059488;28;20028;-74
2021/03/11 09:26:26;;;;;;;15.88;10.35;;;13.10;43.70;;;;;;5058614;28;20033;-74
2021/03/11 09:28:52;;;;;;;17.92;10.77;;;13.20;43.90;;;;;;5039011;28;20037;-74
2021/03/11 09:31:25;;;;;;;17.73;10.13;;;13.30;43.70;;;;;;5058255;28;20069;-74
2021/03/11 09:33:51;;;;;;;16.13;10.00;;;13.40;43.80;;;;;;5059643;28;20025;-73
2021/03/11 09:36:16;;;;;;;20.55;13.20;;;13.50;43.60;;;;;;5059262;28;20029;-74
2021/03/11 09:38:43;;;;;;;22.48;15.02;;;13.60;43.20;;;;;;5041971;28;20029;-74
2021/03/11 09:41:10;;;;;;;28.58;15.85;;;13.60;42.70;;;;;;5041744;28;20005;-73
2021/03/11 09:43:38;;;;;;;31.35;16.50;;;13.50;42.80;;;;;;5059788;28;20021;-74
2021/03/11 09:46:18;;;;;;;29.00;17.38;;;13.50;42.90;;;;;;5060601;28;20029;-74
2021/03/11 09:48:54;;;;;;;29.50;18.35;;;13.30;43.20;;;;;;5059059;28;20032;-74
2021/03/11 09:51:26;;;;;;;25.65;17.27;;;13.30;43.90;;;;;;5058363;28;20029;-73
2021/03/11 09:53:54;;;;;;;30.92;18.70;;;13.20;44.30;;;;;;5058536;28;20025;-74
2021/03/11 09:56:41;;;;;;;28.67;17.83;;;13.10;44.50;;;;;;5058401;28;20031;-74
2021/03/11 09:59:12;;;;;;;32.72;19.05;;;13.10;45.10;;;;;;5058830;28;20014;-74
2021/03/11 10:01:39;;;;;;;28.52;17.05;;;13.10;44.90;;;;;;5058973;28;20054;-73
2021/03/11 10:04:23;;;;;;;31.05;18.05;;;13.00;44.90;;;;;;5058923;28;20006;-73
2021/03/11 10:06:49;;;;;;;28.90;17.10;;;12.90;44.90;;;;;;5058715;28;19998;-72
2021/03/11 10:09:15;;;;;;;29.33;17.75;;;12.80;45.10;;;;;;5059272;28;20037;-74
2021/03/11 10:11:46;;;;;;;29.83;18.25;;;12.70;45.10;;;;;;5059716;28;20032;-74
2021/03/11 10:14:21;;;;;;;32.10;18.65;;;12.60;45.40;;;;;;5042393;28;20033;-74
2021/03/11 10:16:49;;;;;;;34.03;18.27;;;12.50;46.10;;;;;;5059669;28;20081;-73
2021/03/11 10:19:16;;;;;;;31.10;18.65;;;12.50;45.90;;;;;;5059275;28;20037;-74
2021/03/11 10:22:14;;;;;;;32.38;17.60;;;12.30;46.00;;;;;;5058433;28;20028;-73
2021/03/11 10:24:45;;;;;;;32.10;17.23;;;12.30;46.60;;;;;;5054393;28;20045;-74
2021/03/11 10:27:23;;;;;;;27.40;16.95;;;12.20;46.90;;;;;;5046249;28;20506;-74
2021/03/11 10:30:04;;;;;;;27.33;17.65;;;12.10;47.20;;;;;;5038545;28;20478;-75
2021/03/11 10:32:30;;;;;;;26.10;16.70;;;12.00;47.50;;;;;;5036143;28;20025;-74
2021/03/11 10:34:56;;;;;;;28.15;16.25;;;12.00;47.80;;;;;;5017903;28;20022;-74
2021/03/11 10:37:42;;;;;;;35.30;15.95;;;12.00;48.10;;;;;;5035302;28;20470;-74
2021/03/11 10:40:18;;;;;;;32.08;15.18;;;12.10;48.20;;;;;;5034961;28;20056;-74
2021/03/11 10:42:46;;;;;;;24.15;14.90;;;12.10;48.10;;;;;;5033440;28;20033;-74
2021/03/11 10:45:18;;;;;;;25.23;14.88;;;12.20;48.10;;;;;;5034531;28;20463;-74
2021/03/11 10:48:04;;;;;;;21.85;14.00;;;12.30;47.90;;;;;;5034903;28;20037;-74
2021/03/11 10:50:31;;;;;;;23.90;14.20;;;12.40;47.50;;;;;;5016620;28;20029;-74
2021/03/11 10:52:57;;;;;;;26.05;13.05;;;12.50;47.50;;;;;;5016723;28;20021;-74
2021/03/11 10:55:37;;;;;;;31.25;13.32;;;12.60;47.30;;;;;;5034555;28;20092;-74
2021/03/11 10:58:05;;;;;;;25.58;14.02;;;12.60;47.30;;;;;;5034982;28;20378;-74
2021/03/11 11:00:35;;;;;;;30.42;14.60;;;12.80;47.20;;;;;;5035468;28;20099;-74
2021/03/11 11:03:04;;;;;;;24.20;14.23;;;12.90;47.10;;;;;;5016755;28;20053;-74
2021/03/11 11:05:31;;;;;;;33.75;15.25;;;13.00;46.70;;;;;;5016196;28;20021;-74
2021/03/11 11:07:59;;;;;;;29.05;13.45;;;13.10;46.20;;;;;;5034129;28;20036;-74
2021/03/11 11:10:27;;;;;;;25.38;13.73;;;13.30;46.40;;;;;;5033989;28;20508;-74
2021/03/11 11:12:53;;;;;;;29.42;14.50;;;13.40;45.70;;;;;;5034417;28;20384;-74
2021/03/11 11:15:19;;;;;;;28.60;15.20;;;13.60;45.80;;;;;;5034507;28;20105;-74
2021/03/11 11:17:46;;;;;;;33.28;15.50;;;13.80;45.30;;;;;;5016334;28;20510;-74
2021/03/11 11:20:15;;;;;;;31.95;14.13;;;13.90;44.70;;;;;;5033903;28;20386;-74
2021/03/11 11:22:41;;;;;;;22.85;12.73;;;14.00;43.80;;;;;;5033444;28;20079;-74
2021/03/11 11:25:09;;;;;;;25.67;12.88;;;14.10;43.80;;;;;;5035465;28;20079;-74
2021/03/11 11:27:35;;;;;;;20.48;12.85;;;14.20;43.50;;;;;;5042579;28;20026;-74
2021/03/11 11:30:05;;;;;;;21.33;13.00;;;14.40;43.50;;;;;;5036648;28;20026;-74
2021/03/11 11:32:31;;;;;;;22.70;13.07;;;14.50;43.30;;;;;;5033644;28;20032;-74
2021/03/11 11:34:58;;;;;;;25.23;13.25;;;14.60;43.10;;;;;;5034197;28;20021;-74
2021/03/11 11:37:23;;;;;;;24.30;11.63;;;14.70;43.10;;;;;;5032497;28;20037;-74
2021/03/11 11:39:49;;;;;;;20.88;12.95;;;14.80;43.00;;;;;;5033547;28;20033;-74
2021/03/11 11:42:16;;;;;;;24.00;12.38;;;14.90;42.90;;;;;;5033065;28;20021;-74
2021/03/11 11:44:43;;;;;;;22.27;13.95;;;15.00;42.80;;;;;;5033661;28;20514;-74
2021/03/11 11:47:10;;;;;;;23.55;14.30;;;15.10;42.80;;;;;;5033353;28;20021;-74
2021/03/11 11:49:37;;;;;;;29.30;16.00;;;15.20;43.00;;;;;;5033756;28;20030;-74
2021/03/11 11:52:03;;;;;;;30.77;15.48;;;15.30;42.80;;;;;;5033033;28;20068;-75
2021/03/11 11:54:29;;;;;;;27.45;15.70;;;15.40;42.70;;;;;;5033127;28;20029;-74
2021/03/11 11:56:55;;;;;;;33.53;14.63;;;15.40;42.30;;;;;;5033340;28;20037;-74
2021/03/11 11:59:21;;;;;;;26.02;15.32;;;15.50;42.20;;;;;;5015347;28;20567;-74
2021/03/11 12:01:47;;;;;;;25.05;13.75;;;15.50;42.10;;;;;;5033983;28;20078;-75
2021/03/11 12:04:14;;;;;;;25.02;14.27;;;15.50;42.40;;;;;;5033392;28;20033;-74
2021/03/11 12:06:40;;;;;;;26.98;15.07;;;15.60;42.20;;;;;;5033007;28;20395;-74
2021/03/11 12:09:07;;;;;;;23.08;13.93;;;15.70;42.20;;;;;;5033097;28;20025;-74
2021/03/11 12:11:34;;;;;;;26.13;15.45;;;15.70;42.40;;;;;;5033009;28;20032;-74
2021/03/11 12:14:01;;;;;;;26.35;14.05;;;15.80;42.40;;;;;;5032939;28;20072;-74
2021/03/11 12:16:27;;;;;;;22.48;14.52;;;15.90;42.40;;;;;;5033051;28;20017;-74
2021/03/11 12:18:52;;;;;;;24.38;14.43;;;16.00;42.10;;;;;;5033259;28;20048;-74
2021/03/11 12:21:18;;;;;;;34.00;14.45;;;16.10;42.10;;;;;;5033443;28;20033;-75
2021/03/11 12:23:44;;;;;;;25.08;14.18;;;16.10;41.70;;;;;;5015847;28;20021;-74
2021/03/11 12:26:10;;;;;;;30.02;16.75;;;16.20;41.70;;;;;;5033284;28;20091;-75
2021/03/11 12:28:36;;;;;;;25.38;16.23;;;16.20;41.20;;;;;;5015292;28;20025;-75
2021/03/11 12:31:03;;;;;;;24.25;14.98;;;16.10;41.10;;;;;;5033108;28;20534;-75
2021/03/11 12:33:30;;;;;;;37.17;21.13;;;16.00;41.00;;;;;;5014686;28;20113;-75
2021/03/11 12:35:56;;;;;;;28.23;16.35;;;15.90;41.00;;;;;;5033281;28;20013;-75
2021/03/11 12:38:22;;;;;;;23.65;14.02;;;15.80;40.70;;;;;;5032967;28;20529;-74
2021/03/11 12:40:48;;;;;;;18.45;11.98;;;15.60;40.60;;;;;;5032786;28;20025;-75
2021/03/11 12:43:14;;;;;;;20.05;13.20;;;15.50;41.10;;;;;;5015282;28;20411;-75
2021/03/11 12:45:40;;;;;;;24.05;12.85;;;15.30;41.40;;;;;;5014958;28;20069;-75